weather.gov     
National Weather Service

Terminal Aerodrome Forecast
NWS Homepage
This page is being discontinued on March 12, 2014.
The same data is available at this site. Please update your bookmarks.
Thank you, and we apologize for the inconvenience.
Please send an email to SR-SRH.Webmaster@noaa.gov with any concerns.


Current Version
Previous Version:    01  02  03  04  05  06  07  08  09  10  11  12  13  14  15  16  17  18  19  20  21  22  23  24  25  26  27  28  29  30  
   31  
[Printable]
441
FTUS44 KMOB 180400 CCA
TAFPNS
TAF COR
KPNS 180417Z 1804/1824 03007KT 1 1/2SM +SHRA BR FEW022 BKN030
      OVC080
      TEMPO 1804/1808 3SM SHRA BKN015
     FM180800 05014G21KT 3SM SHRA BR OVC007
     FM181600 36008G15KT 4SM -RA OVC015
     FM181900 36010G18KT P6SM VCSH SCT015 BKN050=


U.S. Dept. of Commerce
NOAA National Weather Service
1325 East West Highway
Silver Spring, MD 20910
E-mail: w-nws.webmaster@noaa.gov
Page last modified: May 16, 2007
NATIONAL WEATHER SERVICE: for Safety, for Work, for Fun - FOR LIFE